Time;durP1;ratioP1;P1;durP2;ratioP2;P2;SDS_P1;SDS_P2;PMS_P1;PMS_P2;Temp;Humidity;BMP_temperature;BMP_pressure;BME280_temperature;BME280_humidity;BME280_pressure;Samples;Min_cycle;Max_cycle;Signal;HPM_P1;HPM_P2
2023/08/07 00:00:52;;;;;;;;;;;24.30;52.70;;;;;;5032978;28;88749;-54
2023/08/07 00:03:18;;;;;;;;;;;24.30;52.60;;;;;;5030415;28;87231;-51
2023/08/07 00:05:47;;;;;;;;;;;24.30;52.60;;;;;;5032964;28;88983;-54
2023/08/07 00:08:13;;;;;;;;;;;24.20;52.60;;;;;;5029816;28;87597;-53
2023/08/07 00:10:38;;;;;;;;;;;24.20;52.60;;;;;;5033232;28;87128;-54
2023/08/07 00:13:04;;;;;;;;;;;24.20;52.60;;;;;;5026072;28;87444;-54
2023/08/07 00:15:29;;;;;;;;;;;24.20;52.60;;;;;;5031493;28;89019;-51
2023/08/07 00:17:55;;;;;;;;;;;24.20;52.60;;;;;;5030614;28;87101;-55
2023/08/07 00:20:20;;;;;;;;;;;24.20;52.70;;;;;;5032198;28;87126;-56
2023/08/07 00:22:46;;;;;;;;;;;24.20;52.70;;;;;;5031144;27;87299;-53
2023/08/07 00:25:11;;;;;;;;;;;24.20;52.70;;;;;;5035003;28;87494;-53
2023/08/07 00:27:37;;;;;;;;;;;24.10;52.60;;;;;;5033980;28;88045;-51
2023/08/07 00:30:02;;;;;;;;;;;24.10;52.70;;;;;;5035901;28;87282;-54
2023/08/07 00:32:28;;;;;;;;;;;24.10;52.60;;;;;;5032960;28;88379;-53
2023/08/07 00:34:53;;;;;;;;;;;24.10;52.60;;;;;;5036221;28;87920;-54
2023/08/07 00:37:19;;;;;;;;;;;24.10;52.70;;;;;;5032307;28;88864;-56
2023/08/07 00:39:44;;;;;;;;;;;24.00;52.70;;;;;;5035301;28;87898;-53
2023/08/07 00:42:10;;;;;;;;;;;24.00;52.60;;;;;;5036338;28;88321;-55
2023/08/07 00:44:35;;;;;;;;;;;24.00;52.70;;;;;;5035453;28;87534;-52
2023/08/07 00:47:01;;;;;;;;;;;24.00;52.70;;;;;;5031332;28;88201;-51
2023/08/07 00:49:27;;;;;;;;;;;24.00;52.80;;;;;;5034651;28;87404;-53
2023/08/07 00:51:52;;;;;;;;;;;24.00;52.70;;;;;;5034021;28;87399;-55
2023/08/07 00:54:19;;;;;;;;;;;24.00;52.70;;;;;;5035243;28;88201;-52
2023/08/07 00:56:45;;;;;;;;;;;23.90;52.70;;;;;;5033614;28;86571;-56
2023/08/07 00:59:10;;;;;;;;;;;23.90;52.70;;;;;;5036037;28;88171;-53
2023/08/07 01:01:36;;;;;;;;;;;23.90;52.70;;;;;;5031205;28;89917;-51
2023/08/07 01:04:02;;;;;;;;;;;23.90;52.60;;;;;;5034737;28;88642;-56
2023/08/07 01:06:27;;;;;;;;;;;23.90;52.80;;;;;;5034367;28;87697;-56
2023/08/07 01:08:53;;;;;;;;;;;23.80;52.80;;;;;;5034535;28;87117;-54
2023/08/07 01:11:34;;;;;;;;;;;23.90;52.80;;;;;;5033741;28;87414;-54
2023/08/07 01:14:00;;;;;;;;;;;23.90;52.80;;;;;;5028178;28;88434;-52
2023/08/07 01:16:48;;;;;;;;;;;23.80;52.70;;;;;;5035367;28;87224;-55
2023/08/07 01:19:27;;;;;;;;;;;23.80;52.70;;;;;;5005020;28;87907;-53
2023/08/07 01:22:05;;;;;;;;;;;23.80;52.70;;;;;;5029885;28;86868;-55
2023/08/07 01:24:31;;;;;;;;;;;23.80;52.70;;;;;;5030449;28;87008;-53
2023/08/07 01:27:00;;;;;;;;;;;23.80;52.70;;;;;;5037842;28;87087;-50
2023/08/07 01:29:35;;;;;;;;;;;23.70;52.80;;;;;;5031433;28;88487;-52
2023/08/07 01:32:04;;;;;;;;;;;23.70;52.70;;;;;;5031378;28;89684;-55
2023/08/07 01:34:30;;;;;;;;;;;23.70;52.70;;;;;;5031464;27;89789;-54
2023/08/07 01:36:55;;;;;;;;;;;23.70;52.60;;;;;;5032605;28;87067;-49
2023/08/07 01:39:23;;;;;;;;;;;23.70;52.60;;;;;;5032770;28;87642;-56
2023/08/07 01:41:48;;;;;;;;;;;23.70;52.70;;;;;;5032060;28;89250;-56
2023/08/07 01:44:14;;;;;;;;;;;23.60;52.60;;;;;;5032130;28;87139;-54
2023/08/07 01:46:39;;;;;;;;;;;23.60;52.60;;;;;;5031622;28;87573;-52
2023/08/07 01:49:05;;;;;;;;;;;23.70;52.70;;;;;;5037630;28;88178;-55
2023/08/07 01:51:30;;;;;;;;;;;23.60;52.60;;;;;;5032505;28;86914;-53
2023/08/07 01:53:56;;;;;;;;;;;23.60;52.60;;;;;;5030748;28;90655;-56
2023/08/07 01:56:22;;;;;;;;;;;23.60;52.70;;;;;;5034120;28;87155;-52
2023/08/07 01:58:47;;;;;;;;;;;23.60;52.60;;;;;;5033476;28;87286;-58
2023/08/07 02:01:13;;;;;;;;;;;23.50;52.60;;;;;;5032683;28;88177;-57
2023/08/07 02:03:38;;;;;;;;;;;23.60;52.60;;;;;;5028656;28;87265;-56
2023/08/07 02:06:04;;;;;;;;;;;23.50;52.60;;;;;;5034645;28;87453;-52
2023/08/07 02:08:30;;;;;;;;;;;23.50;52.60;;;;;;5029599;28;88065;-55
2023/08/07 02:10:55;;;;;;;;;;;23.50;52.70;;;;;;5038468;28;86364;-53
2023/08/07 02:13:20;;;;;;;;;;;23.50;52.70;;;;;;5031402;28;87818;-55
2023/08/07 02:15:46;;;;;;;;;;;23.50;52.70;;;;;;5034481;28;87189;-57
2023/08/07 02:18:11;;;;;;;;;;;23.40;52.70;;;;;;5030636;28;88032;-53
2023/08/07 02:20:37;;;;;;;;;;;23.40;52.60;;;;;;5032381;28;87574;-53
2023/08/07 02:23:02;;;;;;;;;;;23.40;52.60;;;;;;5032093;28;87191;-52
2023/08/07 02:25:28;;;;;;;;;;;23.40;52.60;;;;;;5032871;28;87106;-52
2023/08/07 02:27:53;;;;;;;;;;;23.40;52.70;;;;;;5033713;28;88030;-53
2023/08/07 02:30:19;;;;;;;;;;;23.40;52.60;;;;;;5031536;28;87199;-53
2023/08/07 02:32:46;;;;;;;;;;;23.40;52.50;;;;;;5038509;28;87557;-52
2023/08/07 02:35:11;;;;;;;;;;;23.40;52.60;;;;;;5031742;28;86437;-50
2023/08/07 02:37:37;;;;;;;;;;;23.30;52.60;;;;;;5028042;28;87055;-55
2023/08/07 02:40:02;;;;;;;;;;;23.30;52.50;;;;;;5032836;28;89555;-54
2023/08/07 02:42:28;;;;;;;;;;;23.30;52.60;;;;;;5031328;28;87986;-54
2023/08/07 02:44:53;;;;;;;;;;;23.30;52.60;;;;;;5033317;28;88119;-50
2023/08/07 02:47:19;;;;;;;;;;;23.30;52.60;;;;;;5030347;28;88126;-55
2023/08/07 02:49:44;;;;;;;;;;;23.30;52.60;;;;;;5032507;28;87319;-52
2023/08/07 02:52:10;;;;;;;;;;;23.20;52.50;;;;;;5036042;28;87567;-55
2023/08/07 02:54:35;;;;;;;;;;;23.20;52.60;;;;;;5030887;28;87179;-55
2023/08/07 02:57:01;;;;;;;;;;;23.20;52.60;;;;;;5034580;28;87668;-54
2023/08/07 02:59:26;;;;;;;;;;;23.20;52.60;;;;;;5031013;28;87563;-50
2023/08/07 03:01:52;;;;;;;;;;;23.20;52.60;;;;;;5034229;28;87734;-52
2023/08/07 03:04:17;;;;;;;;;;;23.10;52.50;;;;;;5030637;28;87420;-55
2023/08/07 03:06:43;;;;;;;;;;;23.10;52.60;;;;;;5032173;28;90111;-55
2023/08/07 03:09:08;;;;;;;;;;;23.10;52.60;;;;;;5029587;28;87532;-52
2023/08/07 03:11:34;;;;;;;;;;;23.10;52.60;;;;;;5032381;28;87187;-52
2023/08/07 03:13:59;;;;;;;;;;;23.10;52.60;;;;;;5034600;28;87316;-52
2023/08/07 03:16:25;;;;;;;;;;;23.10;52.60;;;;;;5033350;28;87451;-57
2023/08/07 03:18:51;;;;;;;;;;;23.10;52.60;;;;;;5029608;28;88006;-52
2023/08/07 03:21:17;;;;;;;;;;;23.00;52.50;;;;;;5030509;28;87128;-55
2023/08/07 03:23:42;;;;;;;;;;;23.00;52.50;;;;;;5027878;28;89136;-49
2023/08/07 03:26:09;;;;;;;;;;;23.00;52.60;;;;;;5017327;28;88248;-53
2023/08/07 03:28:35;;;;;;;;;;;23.00;52.60;;;;;;5023672;28;88188;-56
2023/08/07 03:31:01;;;;;;;;;;;23.00;52.60;;;;;;5032515;28;88227;-52
2023/08/07 03:33:26;;;;;;;;;;;23.00;52.60;;;;;;5022477;28;88375;-56
2023/08/07 03:35:52;;;;;;;;;;;23.00;52.60;;;;;;5026200;28;89014;-53
2023/08/07 03:38:17;;;;;;;;;;;23.00;52.60;;;;;;5026410;28;87923;-52
2023/08/07 03:40:43;;;;;;;;;;;22.90;52.50;;;;;;5032703;28;87165;-55
2023/08/07 03:43:09;;;;;;;;;;;22.90;52.50;;;;;;5017020;28;89163;-51
2023/08/07 03:45:34;;;;;;;;;;;22.90;52.50;;;;;;5021885;28;89401;-53
2023/08/07 03:48:00;;;;;;;;;;;22.90;52.50;;;;;;5030522;28;86391;-51
2023/08/07 03:50:25;;;;;;;;;;;22.80;52.50;;;;;;5029225;28;87160;-51
2023/08/07 03:52:51;;;;;;;;;;;22.90;52.60;;;;;;5018523;28;88000;-50
2023/08/07 03:55:16;;;;;;;;;;;22.90;52.60;;;;;;5021045;28;88174;-50
2023/08/07 03:57:42;;;;;;;;;;;22.80;52.50;;;;;;5034922;28;88672;-53
2023/08/07 04:00:07;;;;;;;;;;;22.80;52.60;;;;;;5026281;28;87217;-57
2023/08/07 04:02:33;;;;;;;;;;;22.80;52.60;;;;;;5030297;28;87377;-53
2023/08/07 04:04:58;;;;;;;;;;;22.70;52.60;;;;;;5026823;28;88319;-54
2023/08/07 04:07:24;;;;;;;;;;;22.70;52.60;;;;;;5034413;28;87146;-54
2023/08/07 04:09:49;;;;;;;;;;;22.70;52.50;;;;;;5028613;28;87990;-51
2023/08/07 04:12:15;;;;;;;;;;;22.70;52.50;;;;;;5024605;28;87467;-55
2023/08/07 04:14:40;;;;;;;;;;;22.70;52.60;;;;;;5028597;28;87249;-55
2023/08/07 04:17:06;;;;;;;;;;;22.70;52.60;;;;;;5036887;28;88003;-51
2023/08/07 04:19:32;;;;;;;;;;;22.70;52.60;;;;;;5034308;28;88941;-56
2023/08/07 04:21:57;;;;;;;;;;;22.70;52.60;;;;;;5026997;28;88279;-51
2023/08/07 04:24:23;;;;;;;;;;;22.60;52.60;;;;;;5026163;28;88648;-50
2023/08/07 04:26:49;;;;;;;;;;;22.60;52.60;;;;;;5034857;28;87266;-56
2023/08/07 04:29:14;;;;;;;;;;;22.60;52.70;;;;;;5029618;28;88753;-53
2023/08/07 04:31:40;;;;;;;;;;;22.60;52.60;;;;;;5026614;28;88843;-53
2023/08/07 04:34:05;;;;;;;;;;;22.60;52.50;;;;;;5032216;28;87054;-48
2023/08/07 04:36:31;;;;;;;;;;;22.60;52.50;;;;;;5033758;28;87454;-53
2023/08/07 04:38:56;;;;;;;;;;;22.60;52.50;;;;;;5022631;28;88901;-54
2023/08/07 04:41:22;;;;;;;;;;;22.60;52.60;;;;;;5028294;28;87102;-52
2023/08/07 04:43:48;;;;;;;;;;;22.60;52.60;;;;;;5031638;28;89243;-49
2023/08/07 04:46:14;;;;;;;;;;;22.50;52.50;;;;;;5032052;28;87539;-51
2023/08/07 04:48:39;;;;;;;;;;;22.50;52.60;;;;;;5029870;28;88563;-54
2023/08/07 04:51:05;;;;;;;;;;;22.50;52.60;;;;;;5027948;28;87991;-52
2023/08/07 04:53:30;;;;;;;;;;;22.50;52.60;;;;;;5033795;28;87072;-54
2023/08/07 04:55:56;;;;;;;;;;;22.50;52.60;;;;;;5030799;28;87608;-58
2023/08/07 04:58:22;;;;;;;;;;;22.50;52.60;;;;;;5020159;28;89282;-52
2023/08/07 05:00:47;;;;;;;;;;;22.50;52.50;;;;;;5034416;28;86307;-55
2023/08/07 05:03:15;;;;;;;;;;;22.50;52.60;;;;;;5032251;28;88454;-54
2023/08/07 05:05:40;;;;;;;;;;;22.50;52.60;;;;;;5025044;28;87135;-52
2023/08/07 05:08:06;;;;;;;;;;;22.50;52.60;;;;;;5026488;28;88111;-54
2023/08/07 05:10:31;;;;;;;;;;;22.50;52.60;;;;;;5027547;27;87503;-56
2023/08/07 05:12:57;;;;;;;;;;;22.50;52.60;;;;;;5034970;28;87096;-52
2023/08/07 05:15:23;;;;;;;;;;;22.40;52.60;;;;;;5022162;28;87952;-57
2023/08/07 05:17:49;;;;;;;;;;;22.40;52.60;;;;;;5019440;28;88099;-51
2023/08/07 05:20:15;;;;;;;;;;;22.50;52.60;;;;;;5029392;28;88343;-58
2023/08/07 05:22:40;;;;;;;;;;;22.40;52.60;;;;;;5037402;28;87429;-53
2023/08/07 05:25:06;;;;;;;;;;;22.50;52.60;;;;;;5027099;28;86473;-55
2023/08/07 05:27:32;;;;;;;;;;;22.50;52.70;;;;;;5023124;28;88301;-57
2023/08/07 05:29:57;;;;;;;;;;;22.40;52.60;;;;;;5031056;28;88209;-54
2023/08/07 05:32:23;;;;;;;;;;;22.40;52.70;;;;;;5030719;28;88130;-54
2023/08/07 05:34:50;;;;;;;;;;;22.40;52.60;;;;;;5022183;28;87819;-56
2023/08/07 05:37:15;;;;;;;;;;;22.40;52.60;;;;;;5024558;28;88983;-55
2023/08/07 05:39:40;;;;;;;;;;;22.40;52.80;;;;;;5031455;28;87286;-53
2023/08/07 05:42:07;;;;;;;;;;;22.40;52.70;;;;;;5031231;28;87495;-53
2023/08/07 05:44:33;;;;;;;;;;;22.40;52.80;;;;;;5028679;28;89549;-54
2023/08/07 05:46:58;;;;;;;;;;;22.40;52.80;;;;;;5030416;28;87143;-57
2023/08/07 05:49:24;;;;;;;;;;;22.40;52.80;;;;;;5034537;28;87478;-54
2023/08/07 05:51:49;;;;;;;;;;;22.40;52.90;;;;;;5029309;28;88477;-54
2023/08/07 05:54:15;;;;;;;;;;;22.40;52.80;;;;;;5016805;28;87248;-57
2023/08/07 05:56:40;;;;;;;;;;;22.40;52.80;;;;;;5024848;28;89052;-55
2023/08/07 05:59:06;;;;;;;;;;;22.40;52.80;;;;;;5031906;28;87548;-49
2023/08/07 06:01:31;;;;;;;;;;;22.40;52.80;;;;;;5026546;28;87972;-54
2023/08/07 06:03:57;;;;;;;;;;;22.40;52.80;;;;;;5028110;28;88270;-50
2023/08/07 06:06:25;;;;;;;;;;;22.40;52.90;;;;;;5033564;28;87162;-55
2023/08/07 06:08:50;;;;;;;;;;;22.30;52.80;;;;;;5032352;28;90038;-55
2023/08/07 06:11:16;;;;;;;;;;;22.40;53.00;;;;;;5020159;28;87870;-51
2023/08/07 06:13:41;;;;;;;;;;;22.40;52.90;;;;;;5027027;28;87153;-52
2023/08/07 06:16:07;;;;;;;;;;;22.40;52.90;;;;;;5031899;28;87310;-52
2023/08/07 06:18:33;;;;;;;;;;;22.40;53.00;;;;;;5033412;28;87018;-54
2023/08/07 06:20:59;;;;;;;;;;;22.40;53.00;;;;;;5016219;28;89015;-56
2023/08/07 06:23:25;;;;;;;;;;;22.30;52.90;;;;;;5023442;28;88974;-57
2023/08/07 06:25:50;;;;;;;;;;;22.40;53.00;;;;;;5033904;28;86954;-54
2023/08/07 06:28:16;;;;;;;;;;;22.40;53.00;;;;;;5031962;28;87473;-51
2023/08/07 06:30:41;;;;;;;;;;;22.40;53.00;;;;;;5026387;28;87191;-49
2023/08/07 06:33:07;;;;;;;;;;;22.40;53.10;;;;;;5023397;28;87113;-50
2023/08/07 06:35:37;;;;;;;;;;;22.40;53.10;;;;;;5032205;28;88268;-51
2023/08/07 06:38:02;;;;;;;;;;;22.30;53.00;;;;;;5019809;28;86370;-55
2023/08/07 06:40:28;;;;;;;;;;;22.30;53.10;;;;;;5019822;28;87091;-54
2023/08/07 06:42:54;;;;;;;;;;;22.30;53.10;;;;;;5022767;28;87724;-52
2023/08/07 06:45:19;;;;;;;;;;;22.40;53.10;;;;;;5031301;28;88190;-51
2023/08/07 06:47:45;;;;;;;;;;;22.30;53.10;;;;;;5031590;28;88461;-50
2023/08/07 06:50:12;;;;;;;;;;;22.40;53.10;;;;;;5022848;28;87208;-47
2023/08/07 06:52:37;;;;;;;;;;;22.30;53.10;;;;;;5028087;28;89073;-52
2023/08/07 06:55:03;;;;;;;;;;;22.30;53.10;;;;;;5031296;28;88668;-55
2023/08/07 06:57:29;;;;;;;;;;;22.30;53.10;;;;;;5024903;28;87295;-50
2023/08/07 06:59:54;;;;;;;;;;;22.30;53.10;;;;;;5027928;28;87663;-54
2023/08/07 07:02:20;;;;;;;;;;;22.30;53.10;;;;;;5027580;28;87371;-49
2023/08/07 07:04:45;;;;;;;;;;;22.30;53.10;;;;;;5032526;28;87426;-52
2023/08/07 07:07:11;;;;;;;;;;;22.30;53.10;;;;;;5024954;28;87437;-52
2023/08/07 07:09:36;;;;;;;;;;;22.30;53.30;;;;;;5018802;28;89065;-55
2023/08/07 07:12:02;;;;;;;;;;;22.30;53.20;;;;;;5029625;28;87122;-52
2023/08/07 07:14:28;;;;;;;;;;;22.30;53.20;;;;;;5030378;28;88086;-53
2023/08/07 07:16:53;;;;;;;;;;;22.30;53.20;;;;;;5019605;27;88284;-52
2023/08/07 07:19:19;;;;;;;;;;;22.30;53.20;;;;;;5022314;28;87068;-55
2023/08/07 07:21:44;;;;;;;;;;;22.30;53.20;;;;;;5030143;28;87340;-50
2023/08/07 07:24:10;;;;;;;;;;;22.30;53.20;;;;;;5031134;28;87258;-51
2023/08/07 07:26:35;;;;;;;;;;;22.30;53.20;;;;;;5025986;28;87446;-54
2023/08/07 07:29:01;;;;;;;;;;;22.30;53.20;;;;;;5023192;28;90561;-52
2023/08/07 07:31:27;;;;;;;;;;;22.30;53.20;;;;;;5033757;28;87128;-54
2023/08/07 07:33:53;;;;;;;;;;;22.30;53.10;;;;;;5028726;28;89031;-53
2023/08/07 07:36:20;;;;;;;;;;;22.30;53.20;;;;;;5026386;28;87564;-53
2023/08/07 07:38:46;;;;;;;;;;;22.30;53.20;;;;;;5020634;28;89154;-52
2023/08/07 07:41:12;;;;;;;;;;;22.30;53.20;;;;;;5029252;28;89517;-49
2023/08/07 07:43:37;;;;;;;;;;;22.30;53.20;;;;;;5028764;28;87130;-53
2023/08/07 07:46:03;;;;;;;;;;;22.30;53.20;;;;;;5021571;28;87369;-54
2023/08/07 07:48:29;;;;;;;;;;;22.30;53.20;;;;;;5024920;28;87881;-54
2023/08/07 07:50:58;;;;;;;;;;;22.30;53.20;;;;;;5032995;28;86712;-55
2023/08/07 07:53:23;;;;;;;;;;;22.20;53.10;;;;;;5024059;28;87109;-54
2023/08/07 07:55:49;;;;;;;;;;;22.30;53.20;;;;;;5021192;28;87359;-54
2023/08/07 07:58:15;;;;;;;;;;;22.30;53.20;;;;;;5026616;28;89313;-54
2023/08/07 08:00:40;;;;;;;;;;;22.30;53.20;;;;;;5031011;28;89332;-53
2023/08/07 08:03:05;;;;;;;;;;;22.30;53.30;;;;;;5025799;28;87415;-51
2023/08/07 08:05:31;;;;;;;;;;;22.30;53.30;;;;;;5022890;28;87613;-54
2023/08/07 08:07:57;;;;;;;;;;;22.20;53.20;;;;;;5028972;28;88639;-54
2023/08/07 08:10:22;;;;;;;;;;;22.30;53.20;;;;;;5029055;28;87092;-52
2023/08/07 08:12:48;;;;;;;;;;;22.30;53.20;;;;;;5023687;28;87414;-55
2023/08/07 08:15:13;;;;;;;;;;;22.20;53.10;;;;;;5023717;28;87353;-53
2023/08/07 08:17:39;;;;;;;;;;;22.20;53.10;;;;;;5029865;28;87038;-54
2023/08/07 08:20:05;;;;;;;;;;;22.20;53.10;;;;;;5028820;28;88110;-51
2023/08/07 08:22:30;;;;;;;;;;;22.20;53.10;;;;;;5025122;28;88060;-55
2023/08/07 08:24:56;;;;;;;;;;;22.20;53.00;;;;;;5018511;28;88306;-52
2023/08/07 08:27:22;;;;;;;;;;;22.30;53.30;;;;;;5027949;28;87519;-51
2023/08/07 08:29:48;;;;;;;;;;;22.30;53.20;;;;;;5028953;28;87854;-52
2023/08/07 08:32:13;;;;;;;;;;;22.30;53.20;;;;;;5018249;28;89227;-51
2023/08/07 08:34:39;;;;;;;;;;;22.20;53.20;;;;;;5020759;28;88214;-52
2023/08/07 08:37:05;;;;;;;;;;;22.30;53.20;;;;;;5035520;28;87283;-50
2023/08/07 08:39:31;;;;;;;;;;;22.30;53.20;;;;;;5024372;28;89125;-53
2023/08/07 08:41:57;;;;;;;;;;;22.20;53.00;;;;;;5023681;28;88595;-50
2023/08/07 08:44:24;;;;;;;;;;;22.30;53.00;;;;;;5027760;28;88994;-52
2023/08/07 08:46:53;;;;;;;;;;;22.30;53.10;;;;;;5033902;28;89006;-56
2023/08/07 08:49:22;;;;;;;;;;;22.30;53.10;;;;;;5029388;28;87154;-51
2023/08/07 08:51:49;;;;;;;;;;;22.30;53.00;;;;;;5019340;28;87430;-51
2023/08/07 08:54:14;;;;;;;;;;;22.30;53.10;;;;;;5031265;28;88646;-52
2023/08/07 08:56:40;;;;;;;;;;;22.30;53.00;;;;;;5036680;28;87075;-51
2023/08/07 08:59:06;;;;;;;;;;;22.30;53.00;;;;;;5025188;28;88393;-54
2023/08/07 09:01:32;;;;;;;;;;;22.30;53.10;;;;;;5028587;28;88187;-51
2023/08/07 09:03:58;;;;;;;;;;;22.30;53.00;;;;;;5033160;28;88925;-50
2023/08/07 09:06:25;;;;;;;;;;;22.30;53.10;;;;;;5034756;28;88161;-55
2023/08/07 09:08:51;;;;;;;;;;;22.30;53.00;;;;;;5022859;28;87764;-52
2023/08/07 09:11:17;;;;;;;;;;;22.30;52.90;;;;;;5023929;28;88265;-52
2023/08/07 09:13:44;;;;;;;;;;;22.30;52.90;;;;;;5028085;28;88083;-48
2023/08/07 09:16:11;;;;;;;;;;;22.30;52.90;;;;;;5031212;28;87238;-54
2023/08/07 09:18:36;;;;;;;;;;;22.30;52.90;;;;;;5034037;28;87702;-54
2023/08/07 09:21:02;;;;;;;;;;;22.40;52.90;;;;;;5026185;28;87856;-51
2023/08/07 09:23:28;;;;;;;;;;;22.40;52.90;;;;;;5033595;28;87420;-53
2023/08/07 09:26:00;;;;;;;;;;;22.40;53.00;;;;;;5031685;28;88256;-53
2023/08/07 09:28:26;;;;;;;;;;;22.40;53.00;;;;;;5024913;28;86826;-48
2023/08/07 09:30:52;;;;;;;;;;;22.40;53.00;;;;;;5025044;28;87790;-53
2023/08/07 09:33:24;;;;;;;;;;;22.40;53.60;;;;;;5033204;28;88218;-52
2023/08/07 09:35:49;;;;;;;;;;;22.40;52.90;;;;;;5025380;28;88135;-52
2023/08/07 09:38:15;;;;;;;;;;;22.40;52.90;;;;;;5030255;28;88612;-56
2023/08/07 09:40:42;;;;;;;;;;;22.40;52.90;;;;;;5032583;28;88545;-50
2023/08/07 09:43:08;;;;;;;;;;;22.40;52.80;;;;;;5033320;28;88783;-49
2023/08/07 09:45:36;;;;;;;;;;;22.40;52.90;;;;;;5027569;28;89470;-54
2023/08/07 09:48:03;;;;;;;;;;;22.40;52.90;;;;;;5026924;28;88156;-53
2023/08/07 09:50:29;;;;;;;;;;;22.50;53.00;;;;;;5032310;28;88266;-51
2023/08/07 09:52:57;;;;;;;;;;;22.50;52.80;;;;;;5031797;28;88582;-55
2023/08/07 09:55:24;;;;;;;;;;;22.50;52.80;;;;;;5019840;28;87135;-50
2023/08/07 09:57:50;;;;;;;;;;;22.50;52.80;;;;;;5020787;28;87413;-53
2023/08/07 10:00:15;;;;;;;;;;;22.50;52.90;;;;;;5026433;28;88941;-53
2023/08/07 10:02:42;;;;;;;;;;;22.50;52.80;;;;;;5030496;28;87181;-53
2023/08/07 10:05:09;;;;;;;;;;;22.50;52.80;;;;;;5026233;28;89617;-54
2023/08/07 10:07:35;;;;;;;;;;;22.50;52.80;;;;;;5030403;28;87352;-53
2023/08/07 10:10:03;;;;;;;;;;;22.60;53.40;;;;;;5032511;28;87382;-56
2023/08/07 10:12:28;;;;;;;;;;;22.60;52.70;;;;;;5026549;28;89213;-53
2023/08/07 10:14:54;;;;;;;;;;;22.60;52.70;;;;;;5021903;28;87328;-57
2023/08/07 10:17:21;;;;;;;;;;;22.60;52.70;;;;;;5030726;28;88725;-56
2023/08/07 10:19:47;;;;;;;;;;;22.60;52.70;;;;;;5032129;28;89550;-50
2023/08/07 10:22:13;;;;;;;;;;;22.60;52.70;;;;;;5024838;28;87146;-55
2023/08/07 10:24:40;;;;;;;;;;;22.60;52.60;;;;;;5026161;28;88452;-53
2023/08/07 10:27:06;;;;;;;;;;;22.60;52.60;;;;;;5031224;28;87384;-53
2023/08/07 10:29:33;;;;;;;;;;;22.60;52.60;;;;;;5030189;28;87750;-52
2023/08/07 10:31:58;;;;;;;;;;;22.70;52.60;;;;;;5022603;28;87955;-51
2023/08/07 10:34:24;;;;;;;;;;;22.60;52.50;;;;;;5018463;28;87811;-53
2023/08/07 10:36:49;;;;;;;;;;;22.70;52.60;;;;;;5031514;28;87463;-52
2023/08/07 10:39:16;;;;;;;;;;;22.70;52.60;;;;;;5026440;28;88354;-52
2023/08/07 10:41:42;;;;;;;;;;;22.70;52.60;;;;;;5025515;28;86378;-50
2023/08/07 10:44:24;;;;;;;;;;;22.70;52.60;;;;;;5025533;28;87897;-53
2023/08/07 10:46:52;;;;;;;;;;;22.70;52.60;;;;;;5029633;28;87627;-52
2023/08/07 10:49:34;;;;;;;;;;;22.70;52.70;;;;;;5019244;28;87963;-53
2023/08/07 10:52:04;;;;;;;;;;;22.70;52.70;;;;;;5025100;28;88408;-50
2023/08/07 10:54:29;;;;;;;;;;;22.70;52.60;;;;;;5030760;28;87191;-55
2023/08/07 10:56:55;;;;;;;;;;;22.80;52.70;;;;;;5031723;28;87459;-51
2023/08/07 10:59:20;;;;;;;;;;;22.80;52.70;;;;;;5024249;28;88040;-56
2023/08/07 11:01:50;;;;;;;;;;;22.80;52.70;;;;;;5023935;28;87368;-51
2023/08/07 11:04:16;;;;;;;;;;;22.80;52.70;;;;;;5033123;28;87597;-51
2023/08/07 11:06:42;;;;;;;;;;;22.80;52.70;;;;;;5030902;28;87431;-50
2023/08/07 11:09:08;;;;;;;;;;;22.90;52.60;;;;;;5024422;28;88281;-51
2023/08/07 11:11:41;;;;;;;;;;;22.90;52.60;;;;;;5029332;28;88251;-51
2023/08/07 11:14:07;;;;;;;;;;;22.90;52.60;;;;;;5029656;28;88114;-51
2023/08/07 11:16:36;;;;;;;;;;;22.90;52.60;;;;;;5025662;28;88832;-53
2023/08/07 11:19:01;;;;;;;;;;;22.90;52.50;;;;;;5026271;28;88032;-54
2023/08/07 11:21:27;;;;;;;;;;;22.90;52.50;;;;;;5025972;28;87078;-51
2023/08/07 11:23:52;;;;;;;;;;;23.00;52.50;;;;;;5033359;28;87841;-51
2023/08/07 11:26:21;;;;;;;;;;;23.00;52.50;;;;;;5018099;28;88266;-55
2023/08/07 11:28:47;;;;;;;;;;;23.00;52.50;;;;;;5027737;28;87339;-53
2023/08/07 11:31:13;;;;;;;;;;;23.00;52.40;;;;;;5030046;28;87018;-53
2023/08/07 11:33:38;;;;;;;;;;;23.10;52.50;;;;;;5030886;28;87907;-49
2023/08/07 11:36:09;;;;;;;;;;;23.10;52.50;;;;;;5024105;28;88025;-50
2023/08/07 11:38:36;;;;;;;;;;;23.10;52.40;;;;;;5023322;28;89107;-49
2023/08/07 11:41:03;;;;;;;;;;;23.10;52.50;;;;;;5031612;28;87047;-52
2023/08/07 11:43:32;;;;;;;;;;;23.10;52.30;;;;;;5028293;28;87324;-51
2023/08/07 11:45:59;;;;;;;;;;;23.10;52.30;;;;;;5017578;28;87221;-56
2023/08/07 11:48:25;;;;;;;;;;;23.20;52.30;;;;;;5020934;28;88142;-56
2023/08/07 11:50:51;;;;;;;;;;;23.20;52.40;;;;;;5033415;28;87015;-52
2023/08/07 11:53:18;;;;;;;;;;;23.20;52.40;;;;;;5026540;28;87155;-53
2023/08/07 11:55:54;;;;;;;;;;;23.20;52.40;;;;;;5019088;28;86995;-53
2023/08/07 11:58:20;;;;;;;;;;;23.30;52.40;;;;;;5025780;28;88179;-51
2023/08/07 12:00:46;;;;;;;;;;;23.30;52.40;;;;;;5032215;28;87107;-48
2023/08/07 12:03:28;;;;;;;;;;;23.30;52.50;;;;;;5018137;28;88067;-52
2023/08/07 12:05:57;;;;;;;;;;;23.30;52.40;;;;;;5021519;28;88741;-50
2023/08/07 12:08:23;;;;;;;;;;;23.30;52.40;;;;;;5029134;28;86788;-52
2023/08/07 12:10:50;;;;;;;;;;;23.30;52.40;;;;;;5028946;28;87929;-50
2023/08/07 12:13:15;;;;;;;;;;;23.30;52.40;;;;;;5020694;28;89368;-57
2023/08/07 12:15:42;;;;;;;;;;;23.30;52.50;;;;;;5020498;28;90444;-55
2023/08/07 12:18:07;;;;;;;;;;;23.30;52.40;;;;;;5031224;27;89436;-50
2023/08/07 12:20:33;;;;;;;;;;;23.40;52.50;;;;;;5028144;28;87031;-54
2023/08/07 12:22:58;;;;;;;;;;;23.40;52.50;;;;;;5027679;28;88667;-52
2023/08/07 12:25:24;;;;;;;;;;;23.40;52.50;;;;;;5028984;28;87182;-52
2023/08/07 12:27:49;;;;;;;;;;;23.40;52.50;;;;;;5028064;28;88082;-55
2023/08/07 12:30:15;;;;;;;;;;;23.40;52.50;;;;;;5022582;28;88268;-53
2023/08/07 12:32:40;;;;;;;;;;;23.40;53.10;;;;;;5025708;28;88085;-54
2023/08/07 12:35:08;;;;;;;;;;;23.40;52.50;;;;;;5035962;28;87515;-48
2023/08/07 12:37:34;;;;;;;;;;;23.40;52.40;;;;;;5033613;28;89582;-55
2023/08/07 12:40:00;;;;;;;;;;;23.50;52.50;;;;;;5027300;28;87304;-53
2023/08/07 12:42:25;;;;;;;;;;;23.50;52.50;;;;;;5031241;28;87796;-55
2023/08/07 12:44:50;;;;;;;;;;;23.50;52.40;;;;;;5034077;28;87258;-56
2023/08/07 12:47:16;;;;;;;;;;;23.50;52.50;;;;;;5031883;28;87132;-55
2023/08/07 12:49:42;;;;;;;;;;;23.50;52.50;;;;;;5025515;28;87733;-52
2023/08/07 12:52:07;;;;;;;;;;;23.50;52.50;;;;;;5030847;28;90129;-51
2023/08/07 12:54:32;;;;;;;;;;;23.60;51.90;;;;;;5036486;28;87118;-48
2023/08/07 12:56:58;;;;;;;;;;;23.60;52.50;;;;;;5033014;28;87881;-51
2023/08/07 12:59:23;;;;;;;;;;;23.60;52.50;;;;;;5020311;28;87666;-56
2023/08/07 13:01:49;;;;;;;;;;;23.60;52.40;;;;;;5025852;28;87233;-55
2023/08/07 13:04:16;;;;;;;;;;;23.60;52.40;;;;;;5033805;28;88178;-53
2023/08/07 13:06:41;;;;;;;;;;;23.70;52.40;;;;;;5029629;28;88298;-52
2023/08/07 13:09:07;;;;;;;;;;;23.70;52.50;;;;;;5024474;28;88918;-54
2023/08/07 13:11:32;;;;;;;;;;;23.70;52.50;;;;;;5029636;28;86890;-51
2023/08/07 13:13:58;;;;;;;;;;;23.70;52.40;;;;;;5032221;28;87422;-55
2023/08/07 13:16:24;;;;;;;;;;;23.70;52.40;;;;;;5029600;28;88106;-49
2023/08/07 13:18:49;;;;;;;;;;;23.70;52.40;;;;;;5024274;28;88464;-54
2023/08/07 13:21:15;;;;;;;;;;;23.80;52.50;;;;;;5029345;28;87157;-56
2023/08/07 13:23:40;;;;;;;;;;;23.80;52.40;;;;;;5032095;28;88166;-50
2023/08/07 13:26:06;;;;;;;;;;;23.80;52.40;;;;;;5026779;28;89042;-54
2023/08/07 13:28:31;;;;;;;;;;;23.90;52.40;;;;;;5030615;28;88362;-49
2023/08/07 13:30:58;;;;;;;;;;;23.80;52.40;;;;;;5031002;27;87977;-54
2023/08/07 13:33:23;;;;;;;;;;;23.90;52.40;;;;;;5031486;28;86563;-50
2023/08/07 13:35:49;;;;;;;;;;;23.90;52.40;;;;;;5018453;28;87202;-54
2023/08/07 13:38:16;;;;;;;;;;;23.90;52.30;;;;;;5026386;28;88222;-52
2023/08/07 13:40:43;;;;;;;;;;;23.90;52.30;;;;;;5031973;28;88330;-53
2023/08/07 13:43:09;;;;;;;;;;;23.90;52.20;;;;;;5028555;28;88290;-53
2023/08/07 13:45:35;;;;;;;;;;;24.00;52.40;;;;;;5018721;28;87623;-45
2023/08/07 13:48:01;;;;;;;;;;;23.70;52.90;;;;;;5022458;28;87852;-47
2023/08/07 13:50:27;;;;;;;;;;;23.70;53.10;;;;;;5024297;28;89702;-48
2023/08/07 13:52:53;;;;;;;;;;;23.90;53.60;;;;;;5012929;28;87275;-46
2023/08/07 13:55:18;;;;;;;;;;;24.00;53.20;;;;;;5019677;28;87533;-49
2023/08/07 13:57:44;;;;;;;;;;;23.90;53.90;;;;;;5026415;28;87989;-44
2023/08/07 14:00:11;;;;;;;;;;;23.90;53.40;;;;;;5033606;28;87229;-48
2023/08/07 14:02:36;;;;;;;;;;;23.90;52.80;;;;;;5025396;28;88224;-52
2023/08/07 14:05:02;;;;;;;;;;;24.00;52.90;;;;;;5021600;28;88137;-57
2023/08/07 14:07:27;;;;;;;;;;;24.10;52.60;;;;;;5030803;28;87560;-52
2023/08/07 14:09:53;;;;;;;;;;;24.00;53.10;;;;;;5034516;28;88705;-46